This is the latest recevied weather packets stored in our database for station/object KD8ZLZ. If no packets are shown the sender has not sent any weather packets the latest 10 day(s).
| Time | Temp. | Humidity | Pressure | Rain* | Wind** | Luminosity | Snow |
|---|---|---|---|---|---|---|---|
| 1777321228 | 18.33° C | 55% | 1015.7 hPa | 0 mm | - | - | - |
| 1777320328 | 18.89° C | 54% | 1015.7 hPa | 0 mm | - | - | - |
| 1777316728 | 19.44° C | 54% | 1016.1 hPa | 0 mm | - | - | - |
| 1777314951 | 20° C | 55% | 1016.4 hPa | 0 mm | - | - | - |
| 1777314029 | 20° C | 55% | 1016.8 hPa | 0 mm | - | - | - |
| 1777312828 | 20° C | 55% | 1018.2 hPa | 0 mm | - | - | - |
| 1777312228 | 20° C | 56% | 1018.5 hPa | 0 mm | - | - | - |
| 1777309828 | 19.44° C | 57% | 1018.1 hPa | 0 mm | - | - | - |
| 1777308328 | 19.44° C | 56% | 1019.2 hPa | 0 mm | - | - | - |
| 1777307748 | 19.44° C | 55% | 1019.2 hPa | 0 mm | - | - | - |
| 1777305328 | 18.89° C | 57% | 1019.1 hPa | 0 mm | - | - | - |
| 1777304428 | 18.33° C | 58% | 1018.8 hPa | 0 mm | - | - | - |
| 1777303828 | 18.33° C | 58% | 1019.1 hPa | 0 mm | - | - | - |
| 1777299628 | 16.11° C | 62% | 1021.1 hPa | 0 mm | - | - | - |
| 1777296028 | 13.89° C | 71% | 1020.8 hPa | 0 mm | - | - | - |
| 1777293929 | 11.67° C | 81% | 1020.4 hPa | 0 mm | - | - | - |
| 1777293029 | 10.56° C | 83% | 1020.8 hPa | 0 mm | - | - | - |
| 1777292428 | 10° C | 84% | 1020.8 hPa | 0 mm | - | - | - |
| 1777290328 | 8.33° C | 87% | 1021.1 hPa | 0 mm | - | - | - |
| 1777290028 | 7.78° C | 88% | 1021.1 hPa | 0 mm | - | - | - |
| 1777277728 | 6.11° C | 88% | 1020.7 hPa | 0 mm | - | - | - |
| 1777274428 | 6.11° C | 88% | 1021.1 hPa | 0 mm | - | - | - |
| 1777274128 | 6.11° C | 88% | 1021.1 hPa | 0 mm | - | - | - |
| 1777273230 | 6.11° C | 88% | 1021.4 hPa | 0 mm | - | - | - |
| 1777271429 | 6.11° C | 85% | 1021.4 hPa | 0 mm | - | - | - |
* Rain latest hour (hover to see other rain measurements)
** Current wind speed in m/s (hover to see current wind gust speed)